createdAt,value
2023-04-26T00:01:44.893Z,8.80
2023-04-26T00:04:12.900Z,9.10
2023-04-26T00:06:42.021Z,8.90
2023-04-26T00:09:09.730Z,8.90
2023-04-26T00:11:37.468Z,8.80
2023-04-26T00:14:05.428Z,8.80
2023-04-26T00:16:33.306Z,8.70
2023-04-26T00:19:01.268Z,8.90
2023-04-26T00:21:29.470Z,8.80
2023-04-26T00:23:58.644Z,8.70
2023-04-26T00:26:26.420Z,8.80
2023-04-26T00:28:54.421Z,8.70
2023-04-26T00:31:22.455Z,9.00
2023-04-26T00:33:50.542Z,8.20
2023-04-26T00:36:19.367Z,8.70
2023-04-26T00:38:47.676Z,8.60
2023-04-26T00:41:16.886Z,8.60
2023-04-26T00:43:45.151Z,8.40
2023-04-26T00:46:13.209Z,8.40
2023-04-26T00:48:41.313Z,8.80
2023-04-26T00:51:09.299Z,8.30
2023-04-26T00:53:37.694Z,8.30
2023-04-26T00:56:10.173Z,8.50
2023-04-26T00:58:39.890Z,8.20
2023-04-26T01:01:08.260Z,8.20
2023-04-26T01:03:36.499Z,8.30
2023-04-26T01:06:04.748Z,8.10
2023-04-26T01:08:32.534Z,7.90
2023-04-26T01:11:00.617Z,8.10
2023-04-26T01:13:29.052Z,7.80
2023-04-26T01:15:59.683Z,7.90
2023-04-26T01:18:28.559Z,7.80
2023-04-26T01:20:56.880Z,7.90
2023-04-26T01:23:26.033Z,7.70
2023-04-26T01:25:56.221Z,7.70
2023-04-26T01:28:24.299Z,6.90
2023-04-26T01:30:52.082Z,7.60
2023-04-26T01:33:19.845Z,7.50
2023-04-26T01:35:47.578Z,7.60
2023-04-26T01:38:16.185Z,7.30
2023-04-26T01:40:46.141Z,7.30
2023-04-26T01:43:15.437Z,7.40
2023-04-26T01:45:43.185Z,7.20
2023-04-26T01:48:10.958Z,7.20
2023-04-26T01:50:38.666Z,7.20
2023-04-26T01:53:06.385Z,7.10
2023-04-26T01:55:35.442Z,7.10
2023-04-26T01:58:04.660Z,7.00
2023-04-26T02:00:32.871Z,7.20
2023-04-26T02:03:01.056Z,7.30
2023-04-26T02:05:29.002Z,7.00
2023-04-26T02:07:56.830Z,7.00
2023-04-26T02:10:24.733Z,6.90
2023-04-26T02:12:52.604Z,6.90
2023-04-26T02:15:21.709Z,6.90
2023-04-26T02:17:49.745Z,6.80
2023-04-26T02:20:17.758Z,6.90
2023-04-26T02:22:45.986Z,7.10
2023-04-26T02:25:13.714Z,6.90
2023-04-26T02:27:41.895Z,6.60
2023-04-26T02:30:10.308Z,6.80
2023-04-26T02:32:39.430Z,6.60
2023-04-26T02:35:07.859Z,6.70
2023-04-26T02:37:35.706Z,6.90
2023-04-26T02:40:03.919Z,6.70
2023-04-26T02:42:31.945Z,7.10
2023-04-26T02:44:59.663Z,6.70
2023-04-26T02:47:27.382Z,6.90
2023-04-26T02:49:56.446Z,6.60
2023-04-26T02:52:24.216Z,7.00
2023-04-26T02:54:52.001Z,6.70
2023-04-26T02:57:19.711Z,6.70
2023-04-26T02:59:47.597Z,6.70
2023-04-26T03:02:15.528Z,6.70
2023-04-26T03:04:43.572Z,6.70
2023-04-26T03:07:12.655Z,6.50
2023-04-26T03:09:40.640Z,6.40
2023-04-26T03:12:08.911Z,5.80
2023-04-26T03:14:37.017Z,6.50
2023-04-26T03:17:04.864Z,6.20
2023-04-26T03:19:32.655Z,5.60
2023-04-26T03:22:00.629Z,6.30
2023-04-26T03:24:29.751Z,6.30
2023-04-26T03:26:57.845Z,6.20
2023-04-26T03:29:26.149Z,6.30
2023-04-26T03:31:53.953Z,6.30
2023-04-26T03:34:21.819Z,5.70
2023-04-26T03:36:49.517Z,6.20
2023-04-26T03:39:17.775Z,6.10
2023-04-26T03:41:46.826Z,6.20
2023-04-26T03:44:15.246Z,6.30
2023-04-26T03:46:42.976Z,6.10
2023-04-26T03:49:10.759Z,6.10
2023-04-26T03:51:38.516Z,6.10
2023-04-26T03:54:06.714Z,6.30
2023-04-26T03:56:34.481Z,6.10
2023-04-26T03:59:03.534Z,6.10
2023-04-26T04:01:31.576Z,6.20
2023-04-26T04:03:59.459Z,5.60
2023-04-26T04:06:27.900Z,5.60
2023-04-26T04:08:55.816Z,6.00
2023-04-26T04:11:23.637Z,5.60
2023-04-26T04:13:51.375Z,5.60
2023-04-26T04:16:20.479Z,5.60
2023-04-26T04:18:48.231Z,5.10
2023-04-26T04:21:16.014Z,5.60
2023-04-26T04:23:44.480Z,5.60
2023-04-26T04:26:12.658Z,5.70
2023-04-26T04:28:42.170Z,5.60
2023-04-26T04:31:10.252Z,5.40
2023-04-26T04:33:39.434Z,5.60
2023-04-26T04:36:08.514Z,5.60
2023-04-26T04:38:37.282Z,5.40
2023-04-26T04:41:05.238Z,5.60
2023-04-26T04:43:32.972Z,5.60
2023-04-26T04:46:00.847Z,5.50
2023-04-26T04:48:28.723Z,5.90
2023-04-26T04:50:58.269Z,6.00
2023-04-26T04:53:26.204Z,5.90
2023-04-26T04:55:53.924Z,5.90
2023-04-26T04:58:22.440Z,5.90
2023-04-26T05:00:51.468Z,6.00
2023-04-26T05:03:19.362Z,6.10
2023-04-26T05:05:47.176Z,6.00
2023-04-26T05:08:16.622Z,6.30
2023-04-26T05:10:44.380Z,6.10
2023-04-26T05:13:12.093Z,6.40
2023-04-26T05:15:39.894Z,6.20
2023-04-26T05:18:07.654Z,6.40
2023-04-26T05:20:35.528Z,6.20
2023-04-26T05:23:03.471Z,6.40
2023-04-26T05:25:32.586Z,6.40
2023-04-26T05:28:00.340Z,6.60
2023-04-26T05:30:28.188Z,6.70
2023-04-26T05:32:57.026Z,6.70
2023-04-26T05:35:24.862Z,6.70
2023-04-26T05:37:52.657Z,6.80
2023-04-26T05:40:20.481Z,6.60
2023-04-26T05:42:49.503Z,6.60
2023-04-26T05:45:17.459Z,6.80
2023-04-26T05:47:47.443Z,6.80
2023-04-26T05:50:15.406Z,6.80
2023-04-26T05:52:43.138Z,6.70
2023-04-26T05:55:11.341Z,6.90
2023-04-26T05:57:39.094Z,6.10
2023-04-26T06:00:12.352Z,6.80
2023-04-26T06:02:40.265Z,6.90
2023-04-26T06:05:09.308Z,6.70
2023-04-26T06:07:38.002Z,6.70
2023-04-26T06:10:06.492Z,6.90
2023-04-26T06:12:34.233Z,6.70
2023-04-26T06:15:01.940Z,7.30
2023-04-26T06:17:31.640Z,7.20
2023-04-26T06:19:59.427Z,7.10
2023-04-26T06:22:27.243Z,7.40
2023-04-26T06:24:54.928Z,7.50
2023-04-26T06:27:22.629Z,7.70
2023-04-26T06:29:50.474Z,7.80
2023-04-26T06:32:18.206Z,8.00
2023-04-26T06:34:47.226Z,8.50
2023-04-26T06:37:14.979Z,9.00
2023-04-26T06:39:42.697Z,11.30
2023-04-26T06:42:11.466Z,13.40
2023-04-26T06:44:39.263Z,15.60
2023-04-26T06:47:09.415Z,16.20
2023-04-26T06:49:37.239Z,17.10
2023-04-26T06:52:08.628Z,17.00
2023-04-26T06:54:45.915Z,16.60
2023-04-26T06:57:17.842Z,16.60
2023-04-26T06:59:45.694Z,17.50
2023-04-26T07:02:15.195Z,17.30
2023-04-26T07:04:43.999Z,19.10
2023-04-26T07:07:14.375Z,19.70
2023-04-26T07:09:42.222Z,20.00
2023-04-26T07:12:12.373Z,20.30
2023-04-26T07:14:41.412Z,20.50
2023-04-26T07:17:09.414Z,21.00
2023-04-26T07:19:37.281Z,21.20
2023-04-26T07:22:05.542Z,21.10
2023-04-26T07:24:34.862Z,21.80
2023-04-26T07:27:03.361Z,22.00
2023-04-26T07:29:31.200Z,22.00
2023-04-26T07:31:59.254Z,22.40
2023-04-26T07:34:26.932Z,22.20
2023-04-26T07:36:54.713Z,22.30
2023-04-26T07:39:22.419Z,22.00
2023-04-26T07:41:51.551Z,22.00
2023-04-26T07:44:19.328Z,21.80
2023-04-26T07:46:47.091Z,20.90
2023-04-26T07:49:15.001Z,20.20
2023-04-26T07:51:45.137Z,21.00
2023-04-26T07:54:12.915Z,21.70
2023-04-26T07:56:40.799Z,22.10
2023-04-26T07:59:09.841Z,22.70
2023-04-26T08:01:39.528Z,23.10
2023-04-26T08:04:10.415Z,23.40
2023-04-26T08:06:45.450Z,23.70
2023-04-26T08:09:15.143Z,22.90
2023-04-26T08:11:44.776Z,22.30
2023-04-26T08:14:15.981Z,22.70
2023-04-26T08:16:46.359Z,23.30
2023-04-26T08:19:16.254Z,24.20
2023-04-26T08:21:45.862Z,24.10
2023-04-26T08:24:15.687Z,24.40
2023-04-26T08:26:46.617Z,24.60
2023-04-26T08:29:19.252Z,24.00
2023-04-26T08:31:49.160Z,23.90
2023-04-26T08:34:18.954Z,23.40
2023-04-26T08:36:48.702Z,22.70
2023-04-26T08:39:18.667Z,22.60
2023-04-26T08:41:55.521Z,22.40
2023-04-26T08:44:29.626Z,21.90
2023-04-26T08:47:08.796Z,21.90
2023-04-26T08:49:43.255Z,23.00
2023-04-26T08:52:14.298Z,23.50
2023-04-26T08:54:44.433Z,24.00
2023-04-26T08:57:13.086Z,24.50
2023-04-26T08:59:44.028Z,24.30
2023-04-26T09:02:18.753Z,24.50
2023-04-26T09:04:47.719Z,24.80
2023-04-26T09:07:22.083Z,24.60
2023-04-26T09:09:51.294Z,24.50
2023-04-26T09:12:20.858Z,24.10
2023-04-26T09:14:50.381Z,24.00
2023-04-26T09:17:28.283Z,24.10
2023-04-26T09:19:56.610Z,24.20
2023-04-26T09:22:34.445Z,23.10
2023-04-26T09:25:03.782Z,21.40
2023-04-26T09:27:36.220Z,21.20
2023-04-26T09:30:09.249Z,21.90
2023-04-26T09:32:48.419Z,22.20
2023-04-26T09:35:32.590Z,21.60
2023-04-26T09:38:07.835Z,21.30
2023-04-26T09:40:38.585Z,21.40
2023-04-26T09:43:09.002Z,21.20
2023-04-26T09:45:47.508Z,21.10
2023-04-26T09:48:18.968Z,20.50
2023-04-26T09:50:47.225Z,20.40
2023-04-26T09:53:27.828Z,20.50
2023-04-26T09:55:55.970Z,20.50
2023-04-26T09:58:24.044Z,20.40
2023-04-26T10:00:54.401Z,18.90
2023-04-26T10:03:25.386Z,18.50
2023-04-26T10:05:53.683Z,18.90
2023-04-26T10:08:21.420Z,19.00
2023-04-26T10:10:50.133Z,19.20
2023-04-26T10:13:19.442Z,19.00
2023-04-26T10:15:48.345Z,19.10
2023-04-26T10:18:17.623Z,18.70
2023-04-26T10:20:49.373Z,18.50
2023-04-26T10:23:21.969Z,18.40
2023-04-26T10:25:50.037Z,18.30
2023-04-26T10:28:18.826Z,18.60
2023-04-26T10:30:57.038Z,18.70
2023-04-26T10:33:27.227Z,19.10
2023-04-26T10:36:09.661Z,19.00
2023-04-26T10:38:39.307Z,19.30
2023-04-26T10:41:29.045Z,19.00
2023-04-26T10:43:56.800Z,18.70
2023-04-26T10:46:38.417Z,18.30
2023-04-26T10:49:18.255Z,17.80
2023-04-26T10:52:11.478Z,17.50
2023-04-26T10:54:58.740Z,17.70
2023-04-26T10:57:48.549Z,17.30
2023-04-26T11:00:32.959Z,16.20
2023-04-26T11:03:05.623Z,16.40
2023-04-26T11:05:54.676Z,17.00
2023-04-26T11:08:26.634Z,17.40
2023-04-26T11:11:00.182Z,18.10
2023-04-26T11:13:27.912Z,18.70
2023-04-26T11:16:00.965Z,19.20
2023-04-26T11:18:29.477Z,19.70
2023-04-26T11:20:59.503Z,20.00
2023-04-26T11:23:30.738Z,19.60
2023-04-26T11:25:59.346Z,20.20
2023-04-26T11:28:27.120Z,20.30
2023-04-26T11:30:55.880Z,20.20
2023-04-26T11:33:23.797Z,20.30
2023-04-26T11:35:52.840Z,20.20
2023-04-26T11:38:24.882Z,18.70
2023-04-26T11:40:57.603Z,18.40
2023-04-26T11:43:36.085Z,18.30
2023-04-26T11:46:05.204Z,18.80
2023-04-26T11:48:34.499Z,18.20
2023-04-26T11:51:04.508Z,18.10
2023-04-26T11:53:41.738Z,18.80
2023-04-26T11:56:17.028Z,18.80
2023-04-26T11:58:48.533Z,18.60
2023-04-26T12:01:23.255Z,18.10
2023-04-26T12:03:52.799Z,17.60
2023-04-26T12:06:21.340Z,17.60
2023-04-26T12:08:53.808Z,18.00
2023-04-26T12:11:22.016Z,17.90
2023-04-26T12:13:49.886Z,17.80
2023-04-26T12:18:52.895Z,17.20
2023-04-26T12:21:20.837Z,17.50
2023-04-26T12:23:49.022Z,17.80
2023-04-26T12:26:20.399Z,17.60
2023-04-26T12:28:48.180Z,18.40
2023-04-26T12:31:16.011Z,18.70
2023-04-26T12:33:43.798Z,19.00
2023-04-26T12:36:13.070Z,19.50
2023-04-26T12:38:41.100Z,19.90
2023-04-26T12:41:08.846Z,19.50
2023-04-26T12:43:38.004Z,20.00
2023-04-26T12:46:06.011Z,19.80
2023-04-26T12:48:33.818Z,20.00
2023-04-26T12:51:01.546Z,19.90
2023-04-26T12:53:29.300Z,19.40
2023-04-26T12:55:57.120Z,19.40
2023-04-26T12:58:25.463Z,19.30
2023-04-26T13:00:54.614Z,19.50
2023-04-26T13:03:22.466Z,19.50
2023-04-26T13:05:50.721Z,19.70
2023-04-26T13:08:18.517Z,19.10
2023-04-26T13:10:46.274Z,19.00
2023-04-26T13:13:14.016Z,18.60
2023-04-26T13:15:41.791Z,18.70
2023-04-26T13:18:10.917Z,18.50
2023-04-26T13:20:38.868Z,18.70
2023-04-26T13:23:06.610Z,18.90
2023-04-26T13:25:34.518Z,18.90
2023-04-26T13:28:02.884Z,18.90
2023-04-26T13:30:31.121Z,19.00
2023-04-26T13:33:00.285Z,18.90
2023-04-26T13:35:29.788Z,18.70
2023-04-26T13:37:57.540Z,18.90
2023-04-26T13:40:25.285Z,18.40
2023-04-26T13:42:53.100Z,18.40
2023-04-26T13:45:21.024Z,18.60
2023-04-26T13:47:48.783Z,18.40
2023-04-26T13:50:16.755Z,18.40
2023-04-26T13:52:45.926Z,18.10
2023-04-26T13:55:14.378Z,18.00
2023-04-26T13:57:42.307Z,17.90
2023-04-26T14:00:11.867Z,17.80
2023-04-26T14:02:39.879Z,18.00
2023-04-26T14:05:09.133Z,17.80
2023-04-26T14:07:37.048Z,17.90
2023-04-26T14:10:07.415Z,18.20
2023-04-26T14:12:35.609Z,18.10
2023-04-26T14:15:05.506Z,18.00
2023-04-26T14:17:33.372Z,18.20
2023-04-26T14:20:01.238Z,18.80
2023-04-26T14:22:29.348Z,18.70
2023-04-26T14:24:57.242Z,18.20
2023-04-26T14:27:26.909Z,18.60
2023-04-26T14:29:54.713Z,18.70
2023-04-26T14:32:22.469Z,19.00
2023-04-26T14:34:50.193Z,18.80
2023-04-26T14:37:22.268Z,18.40
2023-04-26T14:39:50.147Z,17.70
2023-04-26T14:42:18.091Z,18.30
2023-04-26T14:44:47.577Z,18.10
2023-04-26T14:47:15.484Z,17.80
2023-04-26T14:49:43.235Z,18.10
2023-04-26T14:52:10.964Z,17.70
2023-04-26T14:54:39.350Z,18.10
2023-04-26T14:57:07.126Z,18.10
2023-04-26T14:59:35.207Z,17.60
2023-04-26T15:02:04.954Z,17.50
2023-04-26T15:04:33.041Z,17.10
2023-04-26T15:07:00.988Z,16.70
2023-04-26T15:09:30.578Z,16.70
2023-04-26T15:11:58.715Z,16.50
2023-04-26T15:14:26.929Z,16.80
2023-04-26T15:16:55.057Z,16.60
2023-04-26T15:19:24.198Z,16.30
2023-04-26T15:21:51.959Z,16.60
2023-04-26T15:24:19.764Z,16.60
2023-04-26T15:26:47.545Z,17.00
2023-04-26T15:29:15.456Z,16.60
2023-04-26T15:31:43.235Z,16.40
2023-04-26T15:34:11.390Z,16.40
2023-04-26T15:36:40.506Z,16.30
2023-04-26T15:39:08.325Z,16.20
2023-04-26T15:41:36.388Z,15.70
2023-04-26T15:44:04.248Z,15.50
2023-04-26T15:46:32.042Z,15.60
2023-04-26T15:48:59.821Z,15.20
2023-04-26T15:51:27.924Z,15.50
2023-04-26T15:53:57.081Z,15.50
2023-04-26T15:56:25.999Z,15.60
2023-04-26T15:58:53.876Z,15.70
2023-04-26T16:01:21.976Z,15.90
2023-04-26T16:03:50.608Z,15.90
2023-04-26T16:06:18.437Z,16.10
2023-04-26T16:08:46.277Z,15.90
2023-04-26T16:11:15.504Z,16.00
2023-04-26T16:13:44.586Z,15.80
2023-04-26T16:16:12.602Z,15.80
2023-04-26T16:18:40.694Z,15.70
2023-04-26T16:21:09.556Z,15.90
2023-04-26T16:23:38.130Z,15.60
2023-04-26T16:26:06.156Z,15.40
2023-04-26T16:28:35.213Z,15.20
2023-04-26T16:31:03.106Z,15.40
2023-04-26T16:33:30.971Z,15.50
2023-04-26T16:35:58.803Z,15.50
2023-04-26T16:38:26.762Z,15.60
2023-04-26T16:40:57.669Z,15.70
2023-04-26T16:43:26.783Z,15.50
2023-04-26T16:46:03.537Z,15.40
2023-04-26T16:48:32.718Z,15.30
2023-04-26T16:51:00.943Z,15.30
2023-04-26T16:53:28.849Z,15.30
2023-04-26T16:55:56.845Z,15.30
2023-04-26T16:58:25.084Z,15.60
2023-04-26T17:00:53.059Z,15.40
2023-04-26T17:03:23.971Z,15.10
2023-04-26T17:05:52.020Z,15.50
2023-04-26T17:08:20.832Z,15.40
2023-04-26T17:10:49.136Z,15.40
2023-04-26T17:13:17.284Z,14.80
2023-04-26T17:15:45.354Z,15.20
2023-04-26T17:18:13.160Z,15.20
2023-04-26T17:20:42.499Z,15.30
2023-04-26T17:23:11.605Z,15.10
2023-04-26T17:25:39.345Z,15.10
2023-04-26T17:28:07.144Z,14.70
2023-04-26T17:30:35.264Z,14.70
2023-04-26T17:33:03.432Z,15.10
2023-04-26T17:35:31.254Z,14.50
2023-04-26T17:38:00.423Z,15.00
2023-04-26T17:40:28.214Z,14.80
2023-04-26T17:42:56.095Z,14.90
2023-04-26T17:45:24.065Z,14.70
2023-04-26T17:47:52.131Z,15.00
2023-04-26T17:50:20.995Z,14.70
2023-04-26T17:52:48.981Z,14.80
2023-04-26T17:55:18.258Z,14.70
2023-04-26T17:57:46.742Z,14.60
2023-04-26T18:00:16.201Z,14.70
2023-04-26T18:02:44.364Z,14.40
2023-04-26T18:05:13.250Z,14.40
2023-04-26T18:07:41.235Z,13.70
2023-04-26T18:10:10.039Z,14.00
2023-04-26T18:12:39.776Z,13.80
2023-04-26T18:15:08.795Z,13.90
2023-04-26T18:17:36.892Z,14.00
2023-04-26T18:20:06.483Z,13.60
2023-04-26T18:22:34.312Z,13.50
2023-04-26T18:25:02.231Z,13.50
2023-04-26T18:27:30.224Z,13.60
2023-04-26T18:29:59.691Z,13.50
2023-04-26T18:32:27.596Z,13.60
2023-04-26T18:34:55.606Z,13.60
2023-04-26T18:37:23.542Z,13.70
2023-04-26T18:39:51.375Z,13.40
2023-04-26T18:42:19.417Z,13.50
2023-04-26T18:44:47.228Z,13.40
2023-04-26T18:47:16.322Z,13.40
2023-04-26T18:49:44.110Z,13.40
2023-04-26T18:52:12.000Z,13.10
2023-04-26T18:54:39.954Z,13.10
2023-04-26T18:57:07.873Z,13.20
2023-04-26T18:59:35.655Z,13.40
2023-04-26T19:02:04.270Z,12.60
2023-04-26T19:04:33.738Z,13.10
2023-04-26T19:07:01.713Z,12.90
2023-04-26T19:09:36.994Z,12.80
2023-04-26T19:12:10.958Z,12.90
2023-04-26T19:14:38.747Z,12.80
2023-04-26T19:17:06.683Z,12.80
2023-04-26T19:19:36.666Z,12.50
2023-04-26T19:22:04.481Z,12.60
2023-04-26T19:24:32.292Z,12.40
2023-04-26T19:27:00.846Z,12.30
2023-04-26T19:29:28.622Z,12.60
2023-04-26T19:31:56.650Z,12.30
2023-04-26T19:34:24.582Z,12.30
2023-04-26T19:36:53.767Z,12.50
2023-04-26T19:39:23.393Z,12.10
2023-04-26T19:41:51.671Z,12.40
2023-04-26T19:44:20.238Z,12.40
2023-04-26T19:46:48.151Z,12.30
2023-04-26T19:49:16.024Z,12.40
2023-04-26T19:51:43.815Z,12.30
2023-04-26T19:54:12.959Z,12.30
2023-04-26T19:56:43.179Z,12.60
2023-04-26T19:59:11.149Z,12.50
2023-04-26T20:01:39.010Z,12.20
2023-04-26T20:04:06.908Z,12.30
2023-04-26T20:06:34.786Z,12.40
2023-04-26T20:09:04.780Z,11.90
2023-04-26T20:11:34.262Z,12.30
2023-04-26T20:14:02.101Z,12.00
2023-04-26T20:16:29.932Z,12.50
2023-04-26T20:18:57.991Z,11.50
2023-04-26T20:21:28.304Z,12.10
2023-04-26T20:23:57.037Z,12.00
2023-04-26T20:26:24.867Z,11.70
2023-04-26T20:28:54.115Z,11.80
2023-04-26T20:31:21.973Z,11.60
2023-04-26T20:33:49.821Z,11.50
2023-04-26T20:36:17.687Z,11.50
2023-04-26T20:38:45.662Z,11.60
2023-04-26T20:41:13.412Z,11.40
2023-04-26T20:43:41.201Z,11.60
2023-04-26T20:46:10.898Z,11.60
2023-04-26T20:48:38.831Z,11.30
2023-04-26T20:51:06.588Z,11.50
2023-04-26T20:53:34.369Z,11.20
2023-04-26T20:56:02.154Z,10.70
2023-04-26T20:58:30.469Z,11.00
2023-04-26T21:00:59.277Z,11.50
2023-04-26T21:03:29.045Z,11.20
2023-04-26T21:05:57.135Z,11.10
2023-04-26T21:08:24.933Z,11.00
2023-04-26T21:10:52.715Z,11.50
2023-04-26T21:13:20.455Z,11.50
2023-04-26T21:15:48.291Z,10.80
2023-04-26T21:18:16.577Z,11.50
2023-04-26T21:20:45.805Z,11.30
2023-04-26T21:23:13.535Z,11.40
2023-04-26T21:25:46.260Z,11.40
2023-04-26T21:28:14.081Z,11.50
2023-04-26T21:30:42.202Z,11.00
2023-04-26T21:33:10.182Z,11.00
2023-04-26T21:35:37.984Z,11.10
2023-04-26T21:38:07.169Z,11.00
2023-04-26T21:40:34.995Z,11.00
2023-04-26T21:43:05.245Z,11.00
2023-04-26T21:45:33.624Z,10.90
2023-04-26T21:48:01.453Z,10.80
2023-04-26T21:50:29.310Z,10.70
2023-04-26T21:52:57.063Z,10.70
2023-04-26T21:55:26.775Z,10.80
2023-04-26T21:57:54.648Z,10.70
2023-04-26T22:00:22.672Z,10.60
2023-04-26T22:02:51.337Z,10.40
2023-04-26T22:05:19.188Z,10.50
2023-04-26T22:07:46.970Z,10.50
2023-04-26T22:10:16.242Z,10.60
2023-04-26T22:12:45.723Z,10.40
2023-04-26T22:15:13.642Z,10.40
2023-04-26T22:17:41.502Z,10.30
2023-04-26T22:20:10.464Z,10.10
2023-04-26T22:22:38.214Z,10.20
2023-04-26T22:25:06.784Z,10.30
2023-04-26T22:27:34.638Z,10.30
2023-04-26T22:30:16.245Z,10.30
2023-04-26T22:32:53.627Z,10.00
2023-04-26T22:35:21.695Z,9.70
2023-04-26T22:37:49.551Z,10.30
2023-04-26T22:40:17.748Z,10.40
2023-04-26T22:42:45.812Z,10.00
2023-04-26T22:45:14.925Z,10.10
2023-04-26T22:47:43.030Z,9.40
2023-04-26T22:50:12.330Z,9.80
2023-04-26T22:52:40.625Z,10.00
2023-04-26T22:55:09.516Z,10.00
2023-04-26T22:57:37.547Z,9.90
2023-04-26T23:00:09.458Z,10.00
2023-04-26T23:02:38.627Z,9.80
2023-04-26T23:05:09.593Z,9.80
2023-04-26T23:07:37.540Z,9.60
2023-04-26T23:10:06.536Z,9.20
2023-04-26T23:12:34.386Z,9.50
2023-04-26T23:15:02.755Z,8.80
2023-04-26T23:17:31.934Z,9.30
2023-04-26T23:20:01.209Z,8.90
2023-04-26T23:22:29.025Z,9.40
2023-04-26T23:24:56.807Z,8.90
2023-04-26T23:27:24.847Z,9.00
2023-04-26T23:29:52.660Z,8.80
2023-04-26T23:32:20.422Z,8.80
2023-04-26T23:34:48.199Z,8.90
2023-04-26T23:37:17.282Z,9.00
2023-04-26T23:39:45.163Z,8.80
2023-04-26T23:42:13.060Z,9.00
2023-04-26T23:44:40.885Z,8.70
2023-04-26T23:47:08.724Z,8.70
2023-04-26T23:49:36.506Z,8.80
2023-04-26T23:52:04.276Z,8.60
2023-04-26T23:54:33.574Z,8.80
2023-04-26T23:57:03.554Z,8.70
2023-04-26T23:59:31.370Z,8.40
